Time;durP1;ratioP1;P1;durP2;ratioP2;P2;SDS_P1;SDS_P2;PMS_P1;PMS_P2;Temp;Humidity;BMP_temperature;BMP_pressure;BME280_temperature;BME280_humidity;BME280_pressure;Samples;Min_cycle;Max_cycle;Signal;HPM_P1;HPM_P2
2022/06/25 00:00:50;;;;;;;;;;;21.60;67.00;;;;;;5023820;28;1910;-73
2022/06/25 00:03:15;;;;;;;;;;;21.60;67.10;;;;;;5037655;28;1515;-74
2022/06/25 00:05:41;;;;;;;;;;;21.60;67.10;;;;;;5022753;28;1330;-71
2022/06/25 00:08:06;;;;;;;;;;;21.60;67.10;;;;;;5024459;28;1424;-72
2022/06/25 00:10:32;;;;;;;;;;;21.60;67.10;;;;;;5011228;28;1267;-72
2022/06/25 00:12:57;;;;;;;;;;;21.60;67.10;;;;;;5014746;28;1363;-71
2022/06/25 00:15:23;;;;;;;;;;;21.60;67.10;;;;;;5016143;28;1298;-71
2022/06/25 00:17:48;;;;;;;;;;;21.60;67.10;;;;;;5016210;28;1309;-71
2022/06/25 00:20:14;;;;;;;;;;;21.60;67.10;;;;;;5016146;28;1898;-71
2022/06/25 00:22:39;;;;;;;;;;;21.60;67.10;;;;;;5015049;28;1259;-70
2022/06/25 00:25:05;;;;;;;;;;;21.60;67.10;;;;;;5015635;28;1357;-71
2022/06/25 00:27:30;;;;;;;;;;;21.60;67.10;;;;;;5016507;28;1329;-73
2022/06/25 00:29:56;;;;;;;;;;;21.60;67.10;;;;;;5016153;28;1259;-72
2022/06/25 00:32:21;;;;;;;;;;;21.60;67.10;;;;;;5015831;28;1397;-71
2022/06/25 00:34:47;;;;;;;;;;;21.60;67.10;;;;;;5014400;28;1305;-71
2022/06/25 00:37:12;;;;;;;;;;;21.50;67.00;;;;;;5014642;28;2058;-71
2022/06/25 00:39:38;;;;;;;;;;;21.60;67.10;;;;;;5010217;28;1965;-73
2022/06/25 00:42:10;;;;;;;;;;;21.50;67.00;;;;;;5014310;28;1321;-70
2022/06/25 00:44:36;;;;;;;;;;;21.50;67.00;;;;;;5014291;28;1146;-70
2022/06/25 00:47:02;;;;;;;;;;;21.60;67.10;;;;;;5015624;28;1704;-72
2022/06/25 00:49:28;;;;;;;;;;;21.60;67.10;;;;;;5014630;28;1292;-72
2022/06/25 00:51:53;;;;;;;;;;;21.60;67.10;;;;;;5021415;28;1288;-72
2022/06/25 00:54:19;;;;;;;;;;;21.60;67.10;;;;;;5034099;28;1100;-72
2022/06/25 00:56:47;;;;;;;;;;;21.60;67.10;;;;;;5034299;28;938;-71
2022/06/25 00:59:12;;;;;;;;;;;21.60;67.10;;;;;;5034216;28;1152;-72
2022/06/25 01:01:38;;;;;;;;;;;21.60;67.10;;;;;;5020286;28;1914;-71
2022/06/25 01:04:03;;;;;;;;;;;21.60;67.10;;;;;;5035093;28;1153;-71
2022/06/25 01:06:29;;;;;;;;;;;21.60;67.10;;;;;;5035636;28;1325;-72
2022/06/25 01:08:55;;;;;;;;;;;21.60;67.10;;;;;;5033731;28;1290;-71
2022/06/25 01:11:21;;;;;;;;;;;21.60;67.10;;;;;;5033711;28;1385;-70
2022/06/25 01:13:46;;;;;;;;;;;21.60;67.10;;;;;;5033909;28;1303;-72
2022/06/25 01:16:12;;;;;;;;;;;21.60;67.10;;;;;;5035168;28;1174;-72
2022/06/25 01:18:37;;;;;;;;;;;21.60;67.10;;;;;;5033781;28;1222;-73
2022/06/25 01:21:03;;;;;;;;;;;21.60;67.10;;;;;;5034717;28;1956;-72
2022/06/25 01:23:28;;;;;;;;;;;21.60;67.20;;;;;;5034592;28;1081;-72
2022/06/25 01:25:54;;;;;;;;;;;21.60;67.20;;;;;;5020022;28;1174;-72
2022/06/25 01:28:19;;;;;;;;;;;21.60;67.10;;;;;;5034746;28;1306;-72
2022/06/25 01:30:44;;;;;;;;;;;21.60;67.20;;;;;;5035016;28;1322;-71
2022/06/25 01:33:10;;;;;;;;;;;21.60;67.10;;;;;;5034558;28;1356;-72
2022/06/25 01:35:35;;;;;;;;;;;21.60;67.10;;;;;;5034398;28;1302;-71
2022/06/25 01:38:01;;;;;;;;;;;21.60;67.20;;;;;;5034413;28;1335;-70
2022/06/25 01:40:27;;;;;;;;;;;21.60;67.10;;;;;;5034414;28;1953;-72
2022/06/25 01:42:59;;;;;;;;;;;21.60;67.10;;;;;;5023065;28;1285;-71
2022/06/25 01:45:29;;;;;;;;;;;21.60;67.20;;;;;;5033811;28;1349;-72
2022/06/25 01:47:54;;;;;;;;;;;21.60;67.20;;;;;;5033117;28;1329;-71
2022/06/25 01:50:19;;;;;;;;;;;21.60;67.20;;;;;;5033211;28;1203;-71
2022/06/25 01:52:48;;;;;;;;;;;21.60;67.20;;;;;;5033744;28;1223;-72
2022/06/25 01:55:13;;;;;;;;;;;21.60;67.20;;;;;;5026774;28;1156;-72
2022/06/25 01:57:39;;;;;;;;;;;21.60;67.20;;;;;;5026320;28;1148;-73
2022/06/25 02:00:05;;;;;;;;;;;21.50;67.10;;;;;;5032925;28;1910;-71
2022/06/25 02:02:31;;;;;;;;;;;21.60;67.20;;;;;;5032659;28;1400;-72
2022/06/25 02:04:56;;;;;;;;;;;21.60;67.20;;;;;;5032689;28;993;-72
2022/06/25 02:07:22;;;;;;;;;;;21.60;67.20;;;;;;5033733;28;1326;-71
2022/06/25 02:09:47;;;;;;;;;;;21.60;67.20;;;;;;5033966;28;1131;-71
2022/06/25 02:12:13;;;;;;;;;;;21.60;67.20;;;;;;5034013;28;1275;-70
2022/06/25 02:14:38;;;;;;;;;;;21.60;67.20;;;;;;5033656;28;1424;-71
2022/06/25 02:17:04;;;;;;;;;;;21.60;67.20;;;;;;5033787;28;1079;-71
2022/06/25 02:19:29;;;;;;;;;;;21.60;67.20;;;;;;5032483;28;1894;-70
2022/06/25 02:21:55;;;;;;;;;;;21.60;67.20;;;;;;5032043;28;1333;-71
2022/06/25 02:24:20;;;;;;;;;;;21.60;67.20;;;;;;5032118;28;1227;-71
2022/06/25 02:26:46;;;;;;;;;;;21.60;67.20;;;;;;5012434;28;1111;-70
2022/06/25 02:29:11;;;;;;;;;;;21.60;67.20;;;;;;5031622;28;1386;-71
2022/06/25 02:31:37;;;;;;;;;;;21.50;67.10;;;;;;5033462;28;1330;-71
2022/06/25 02:34:02;;;;;;;;;;;21.60;67.30;;;;;;5033099;28;1282;-71
2022/06/25 02:36:27;;;;;;;;;;;21.60;67.30;;;;;;5032815;28;1166;-71
2022/06/25 02:38:53;;;;;;;;;;;21.60;67.20;;;;;;5033333;28;1365;-71
2022/06/25 02:41:18;;;;;;;;;;;21.60;67.20;;;;;;5021634;28;1957;-71
2022/06/25 02:43:44;;;;;;;;;;;21.60;67.20;;;;;;5031655;28;1147;-71
2022/06/25 02:46:09;;;;;;;;;;;21.60;67.20;;;;;;5033376;28;1118;-71
2022/06/25 02:48:35;;;;;;;;;;;21.60;67.20;;;;;;5033270;28;1367;-70
2022/06/25 02:51:00;;;;;;;;;;;21.60;67.20;;;;;;5033008;28;1369;-70
2022/06/25 02:53:25;;;;;;;;;;;21.60;67.20;;;;;;5031689;28;1061;-70
2022/06/25 02:58:55;;;;;;;;;;;21.50;67.20;;;;;;5000951;28;1342;-71
2022/06/25 03:01:23;;;;;;;;;;;21.60;67.30;;;;;;5028782;28;1917;-71
2022/06/25 03:03:49;;;;;;;;;;;21.50;67.20;;;;;;5032699;28;1637;-71
2022/06/25 03:06:14;;;;;;;;;;;21.60;67.30;;;;;;5033667;28;1258;-71
2022/06/25 03:08:40;;;;;;;;;;;21.60;67.20;;;;;;5031897;28;1463;-71
2022/06/25 03:11:05;;;;;;;;;;;21.60;67.30;;;;;;5031755;28;1826;-71
2022/06/25 03:13:34;;;;;;;;;;;21.60;67.30;;;;;;5032948;28;1267;-71
2022/06/25 03:16:05;;;;;;;;;;;21.60;67.30;;;;;;5029431;28;1052;-71
2022/06/25 03:18:31;;;;;;;;;;;21.60;67.30;;;;;;5022709;28;1220;-71
2022/06/25 03:20:56;;;;;;;;;;;21.60;67.30;;;;;;5032717;28;1955;-71
2022/06/25 03:23:22;;;;;;;;;;;21.60;67.30;;;;;;5032798;28;1295;-71
2022/06/25 03:25:48;;;;;;;;;;;21.60;67.30;;;;;;5031438;28;1333;-71
2022/06/25 03:28:13;;;;;;;;;;;21.60;67.30;;;;;;5032906;28;1254;-71
2022/06/25 03:30:39;;;;;;;;;;;21.60;67.30;;;;;;5031331;28;1292;-71
2022/06/25 03:33:04;;;;;;;;;;;21.60;67.30;;;;;;5032643;28;1342;-71
2022/06/25 03:35:30;;;;;;;;;;;21.60;67.30;;;;;;5031398;28;1296;-71
2022/06/25 03:37:55;;;;;;;;;;;21.60;67.40;;;;;;5031355;28;1281;-71
2022/06/25 03:40:21;;;;;;;;;;;21.60;67.30;;;;;;5031450;28;1965;-71
2022/06/25 03:42:46;;;;;;;;;;;21.50;67.20;;;;;;5032452;28;1279;-70
2022/06/25 03:45:12;;;;;;;;;;;21.50;67.30;;;;;;5031315;28;1275;-70
2022/06/25 03:47:37;;;;;;;;;;;21.60;67.40;;;;;;5033399;28;1357;-70
2022/06/25 03:50:03;;;;;;;;;;;21.50;67.30;;;;;;5036646;28;1267;-70
2022/06/25 03:52:28;;;;;;;;;;;21.60;67.40;;;;;;5018715;28;1268;-70
2022/06/25 03:54:54;;;;;;;;;;;21.50;68.00;;;;;;5036249;28;1329;-70
2022/06/25 03:57:19;;;;;;;;;;;21.60;67.40;;;;;;5035371;28;1223;-71
2022/06/25 03:59:45;;;;;;;;;;;21.60;67.30;;;;;;5034994;28;1906;-71
2022/06/25 04:02:10;;;;;;;;;;;21.60;67.40;;;;;;5035105;28;1352;-71
2022/06/25 04:04:36;;;;;;;;;;;21.60;67.40;;;;;;5034819;28;1410;-71
2022/06/25 04:07:01;;;;;;;;;;;21.50;67.30;;;;;;5036240;28;1270;-71
2022/06/25 04:09:26;;;;;;;;;;;21.50;67.30;;;;;;5036226;28;1335;-70
2022/06/25 04:11:52;;;;;;;;;;;21.60;67.40;;;;;;5036255;28;1315;-70
2022/06/25 04:14:17;;;;;;;;;;;21.60;67.40;;;;;;5035610;28;1297;-71
2022/06/25 04:16:43;;;;;;;;;;;21.60;67.40;;;;;;5036270;28;1342;-71
2022/06/25 04:19:08;;;;;;;;;;;21.60;67.40;;;;;;5030922;28;1361;-70
2022/06/25 04:21:34;;;;;;;;;;;21.60;67.40;;;;;;5034827;28;1907;-72
2022/06/25 04:23:59;;;;;;;;;;;21.60;67.40;;;;;;5034697;28;1268;-72
2022/06/25 04:26:24;;;;;;;;;;;21.60;67.40;;;;;;5034789;28;1394;-71
2022/06/25 04:29:05;;;;;;;;;;;21.60;67.40;;;;;;5035679;28;1142;-69
2022/06/25 04:31:31;;;;;;;;;;;21.60;67.40;;;;;;5034932;28;1454;-72
2022/06/25 04:33:57;;;;;;;;;;;21.60;67.40;;;;;;5034294;28;1350;-71
2022/06/25 04:36:22;;;;;;;;;;;21.50;67.30;;;;;;5034694;28;1363;-70
2022/06/25 04:38:48;;;;;;;;;;;21.60;67.40;;;;;;5035577;28;1448;-70
2022/06/25 04:41:13;;;;;;;;;;;21.60;67.40;;;;;;5034199;28;1954;-70
2022/06/25 04:43:39;;;;;;;;;;;21.60;67.40;;;;;;5035245;28;1302;-70
2022/06/25 04:46:04;;;;;;;;;;;21.60;67.40;;;;;;5035544;28;1281;-69
2022/06/25 04:48:30;;;;;;;;;;;21.60;67.40;;;;;;5035384;28;1354;-69
2022/06/25 04:50:55;;;;;;;;;;;21.60;67.40;;;;;;5034249;28;1339;-71
2022/06/25 04:53:21;;;;;;;;;;;21.60;67.40;;;;;;5035307;28;1219;-70
2022/06/25 04:55:46;;;;;;;;;;;21.60;67.40;;;;;;5035283;28;1334;-70
2022/06/25 04:58:11;;;;;;;;;;;21.60;67.40;;;;;;5034406;28;1175;-70
2022/06/25 05:00:37;;;;;;;;;;;21.60;67.40;;;;;;5033759;28;1972;-71
2022/06/25 05:03:02;;;;;;;;;;;21.50;67.30;;;;;;5017205;28;1460;-70
2022/06/25 05:05:28;;;;;;;;;;;21.60;67.40;;;;;;5034968;28;1302;-70
2022/06/25 05:07:53;;;;;;;;;;;21.60;67.40;;;;;;5033913;28;1311;-70
2022/06/25 05:10:19;;;;;;;;;;;21.60;67.40;;;;;;5033907;28;1344;-70
2022/06/25 05:15:28;;;;;;;;;;;21.60;67.40;;;;;;5034898;28;1107;-71
2022/06/25 05:17:54;;;;;;;;;;;21.50;67.40;;;;;;5033766;28;1092;-73
2022/06/25 05:20:19;;;;;;;;;;;21.60;67.40;;;;;;5029502;28;1898;-72
2022/06/25 05:22:45;;;;;;;;;;;21.60;67.40;;;;;;5034724;28;1210;-72
2022/06/25 05:25:10;;;;;;;;;;;21.60;67.40;;;;;;5029048;28;1668;-74
2022/06/25 05:27:36;;;;;;;;;;;21.60;67.50;;;;;;5030109;28;1869;-73
2022/06/25 05:30:02;;;;;;;;;;;21.60;67.40;;;;;;5034865;28;1232;-72
2022/06/25 05:32:27;;;;;;;;;;;21.60;67.40;;;;;;5034923;28;1275;-76
2022/06/25 05:34:54;;;;;;;;;;;21.60;67.40;;;;;;5033195;28;1333;-75
2022/06/25 05:37:20;;;;;;;;;;;21.60;67.40;;;;;;5034826;28;1474;-74
2022/06/25 05:39:45;;;;;;;;;;;21.50;67.40;;;;;;5034264;28;1902;-73
2022/06/25 05:42:11;;;;;;;;;;;21.60;67.50;;;;;;5034493;28;1368;-75
2022/06/25 05:44:36;;;;;;;;;;;21.60;67.50;;;;;;5034530;28;1359;-78
2022/06/25 05:47:02;;;;;;;;;;;21.60;67.50;;;;;;5027900;28;1159;-76
2022/06/25 05:49:27;;;;;;;;;;;21.60;67.50;;;;;;5026912;28;1309;-76
2022/06/25 05:51:53;;;;;;;;;;;21.60;67.50;;;;;;5049298;22;3756;-71
2022/06/25 05:54:18;;;;;;;;;;;21.60;67.50;;;;;;5045880;28;902;-68
2022/06/25 05:56:44;;;;;;;;;;;21.60;67.50;;;;;;5054142;28;1314;-71
2022/06/25 05:59:09;;;;;;;;;;;21.60;67.50;;;;;;5065079;28;1182;-69
2022/06/25 06:01:35;;;;;;;;;;;21.60;67.50;;;;;;5055034;28;1993;-69
2022/06/25 06:04:00;;;;;;;;;;;21.60;67.50;;;;;;5044752;28;1409;-70
2022/06/25 06:06:26;;;;;;;;;;;21.60;67.50;;;;;;5067406;28;1161;-71
2022/06/25 06:08:51;;;;;;;;;;;21.60;67.50;;;;;;5051550;28;2048;-70
2022/06/25 06:11:17;;;;;;;;;;;21.60;67.50;;;;;;5042763;28;1272;-70
2022/06/25 06:13:42;;;;;;;;;;;21.60;67.50;;;;;;5047031;28;1774;-69
2022/06/25 06:16:07;;;;;;;;;;;21.60;67.50;;;;;;5043193;28;1805;-70
2022/06/25 06:18:33;;;;;;;;;;;21.60;67.50;;;;;;5051948;28;1036;-70
2022/06/25 06:20:58;;;;;;;;;;;21.60;67.50;;;;;;5052188;28;1894;-67
2022/06/25 06:23:24;;;;;;;;;;;21.60;67.50;;;;;;5051188;28;1181;-70
2022/06/25 06:25:49;;;;;;;;;;;21.60;67.50;;;;;;5048831;28;1298;-70
2022/06/25 06:28:16;;;;;;;;;;;21.60;67.50;;;;;;5052027;28;1269;-70
2022/06/25 06:30:41;;;;;;;;;;;21.60;67.50;;;;;;5057221;28;1115;-70
2022/06/25 06:33:07;;;;;;;;;;;21.60;67.50;;;;;;5051608;28;1340;-69
2022/06/25 06:35:32;;;;;;;;;;;21.60;67.50;;;;;;5037349;28;1239;-68
2022/06/25 06:37:58;;;;;;;;;;;21.60;67.50;;;;;;5053243;28;1261;-69
2022/06/25 06:40:23;;;;;;;;;;;21.60;67.50;;;;;;5053229;28;1949;-70
2022/06/25 06:42:48;;;;;;;;;;;21.60;68.20;;;;;;5053185;28;1305;-70
2022/06/25 06:45:14;;;;;;;;;;;21.60;67.50;;;;;;5043378;28;2293;-69
2022/06/25 06:47:39;;;;;;;;;;;21.60;67.50;;;;;;5046199;28;1328;-68
2022/06/25 06:50:06;;;;;;;;;;;21.60;67.50;;;;;;5043910;28;1455;-69
2022/06/25 06:52:32;;;;;;;;;;;21.60;67.50;;;;;;5041248;28;1561;-69
2022/06/25 06:54:59;;;;;;;;;;;21.60;67.50;;;;;;5049050;28;1443;-69
2022/06/25 06:57:25;;;;;;;;;;;21.60;67.50;;;;;;5053172;28;1478;-69
2022/06/25 06:59:50;;;;;;;;;;;21.60;67.50;;;;;;5047743;28;1902;-69
2022/06/25 07:02:16;;;;;;;;;;;21.60;67.50;;;;;;5043819;28;2086;-69
2022/06/25 07:04:41;;;;;;;;;;;21.60;67.50;;;;;;5043273;28;1937;-69
2022/06/25 07:07:07;;;;;;;;;;;21.60;67.50;;;;;;5051086;28;1242;-69
2022/06/25 07:09:32;;;;;;;;;;;21.60;67.50;;;;;;5065090;28;1518;-68
2022/06/25 07:11:57;;;;;;;;;;;21.60;67.50;;;;;;5050169;28;1945;-68
2022/06/25 07:14:23;;;;;;;;;;;21.60;67.50;;;;;;5042372;28;1384;-68
2022/06/25 07:16:49;;;;;;;;;;;21.60;67.50;;;;;;5051922;28;1636;-69
2022/06/25 07:19:14;;;;;;;;;;;21.60;67.50;;;;;;5045345;28;1356;-69
2022/06/25 07:21:39;;;;;;;;;;;21.60;67.50;;;;;;5042275;28;1906;-70
2022/06/25 07:24:05;;;;;;;;;;;21.60;67.50;;;;;;5041709;28;1928;-69
2022/06/25 07:26:31;;;;;;;;;;;21.60;67.50;;;;;;5043081;28;1575;-69
2022/06/25 07:28:56;;;;;;;;;;;21.60;67.50;;;;;;5034904;28;1570;-69
2022/06/25 07:31:21;;;;;;;;;;;21.60;67.50;;;;;;5043251;28;1264;-69
2022/06/25 07:33:47;;;;;;;;;;;21.60;67.50;;;;;;5059540;28;1250;-69
2022/06/25 07:36:13;;;;;;;;;;;21.60;67.50;;;;;;5032690;28;867;-69
2022/06/25 07:38:38;;;;;;;;;;;21.60;67.50;;;;;;5048987;28;1200;-69
2022/06/25 07:41:04;;;;;;;;;;;21.60;67.50;;;;;;5061036;28;1955;-69
2022/06/25 07:43:30;;;;;;;;;;;21.60;67.60;;;;;;5042287;28;1691;-69
2022/06/25 07:45:55;;;;;;;;;;;21.50;67.50;;;;;;5052753;28;1512;-69
2022/06/25 07:48:21;;;;;;;;;;;21.60;67.50;;;;;;5040716;28;1458;-69
2022/06/25 07:53:31;;;;;;;;;;;21.60;67.50;;;;;;5066168;28;1457;-69
2022/06/25 07:55:56;;;;;;;;;;;21.60;67.50;;;;;;5063611;28;1332;-69
2022/06/25 07:58:23;;;;;;;;;;;21.60;67.50;;;;;;5072496;28;1502;-69
2022/06/25 08:00:49;;;;;;;;;;;21.60;67.50;;;;;;5078203;28;1977;-69
2022/06/25 08:03:14;;;;;;;;;;;21.60;67.50;;;;;;5060328;28;1581;-69
2022/06/25 08:05:39;;;;;;;;;;;21.60;67.50;;;;;;5072287;28;1361;-69
2022/06/25 08:08:05;;;;;;;;;;;21.60;67.60;;;;;;5056160;28;1187;-69
2022/06/25 08:10:30;;;;;;;;;;;21.60;67.60;;;;;;5071592;28;1522;-69
2022/06/25 08:12:56;;;;;;;;;;;21.60;67.60;;;;;;5066958;28;1467;-69
2022/06/25 08:15:21;;;;;;;;;;;21.60;67.50;;;;;;5067217;28;1464;-69
2022/06/25 08:17:47;;;;;;;;;;;21.60;67.60;;;;;;5078117;28;1447;-69
2022/06/25 08:20:12;;;;;;;;;;;21.60;67.60;;;;;;5074527;28;1898;-69
2022/06/25 08:22:38;;;;;;;;;;;21.60;67.60;;;;;;5085721;28;1331;-69
2022/06/25 08:25:04;;;;;;;;;;;21.60;67.60;;;;;;5070979;28;1635;-69
2022/06/25 08:27:31;;;;;;;;;;;21.60;67.50;;;;;;5058836;28;1009;-69
2022/06/25 08:29:57;;;;;;;;;;;21.60;67.50;;;;;;5059644;28;878;-69
2022/06/25 08:32:22;;;;;;;;;;;21.60;67.50;;;;;;5071534;28;1259;-69
2022/06/25 08:34:48;;;;;;;;;;;21.60;67.60;;;;;;5088160;28;1407;-69
2022/06/25 08:37:13;;;;;;;;;;;21.60;67.60;;;;;;5082585;28;1036;-69
2022/06/25 08:39:39;;;;;;;;;;;21.60;67.60;;;;;;5070949;28;1480;-69
2022/06/25 08:42:05;;;;;;;;;;;21.60;67.60;;;;;;5066928;28;1180;-69
2022/06/25 08:44:30;;;;;;;;;;;21.60;67.60;;;;;;5095953;28;799;-69
2022/06/25 08:46:56;;;;;;;;;;;21.60;67.60;;;;;;5070184;28;1492;-69
2022/06/25 08:49:22;;;;;;;;;;;21.60;67.60;;;;;;5067682;28;1459;-69
2022/06/25 08:51:47;;;;;;;;;;;21.60;67.60;;;;;;5060962;28;1264;-69
2022/06/25 08:54:12;;;;;;;;;;;21.60;67.60;;;;;;5086485;28;1181;-69
2022/06/25 08:56:38;;;;;;;;;;;21.60;67.60;;;;;;5056621;28;1671;-69
2022/06/25 08:59:03;;;;;;;;;;;21.60;67.50;;;;;;5077238;28;1166;-69
2022/06/25 09:01:29;;;;;;;;;;;21.60;67.50;;;;;;5077316;28;1906;-69
2022/06/25 09:03:55;;;;;;;;;;;21.50;67.50;;;;;;5065936;28;1784;-69
2022/06/25 09:06:21;;;;;;;;;;;21.60;67.60;;;;;;5088793;28;1499;-69
2022/06/25 09:09:05;;;;;;;;;;;21.60;67.60;;;;;;5075289;28;972;-69
2022/06/25 09:11:30;;;;;;;;;;;21.60;67.60;;;;;;5075307;28;1412;-69
2022/06/25 09:13:59;;;;;;;;;;;21.60;67.60;;;;;;5075268;28;1161;-69
2022/06/25 09:16:24;;;;;;;;;;;21.60;67.60;;;;;;5087878;28;1161;-69
2022/06/25 09:18:50;;;;;;;;;;;21.60;67.60;;;;;;5082439;28;1102;-69
2022/06/25 09:21:15;;;;;;;;;;;21.60;67.50;;;;;;5069606;28;1965;-69
2022/06/25 09:23:57;;;;;;;;;;;21.60;67.60;;;;;;5080901;28;1192;-69
2022/06/25 09:26:22;;;;;;;;;;;21.60;67.60;;;;;;5074892;28;1465;-69
2022/06/25 09:28:48;;;;;;;;;;;21.60;67.50;;;;;;5091070;28;1478;-69
2022/06/25 09:31:15;;;;;;;;;;;21.60;67.60;;;;;;5077001;28;1364;-69
2022/06/25 09:33:40;;;;;;;;;;;21.60;67.60;;;;;;5055839;28;1285;-69
2022/06/25 09:36:09;;;;;;;;;;;21.60;67.60;;;;;;5083995;28;945;-69
2022/06/25 09:38:34;;;;;;;;;;;21.60;67.50;;;;;;5078623;28;1173;-69
2022/06/25 09:41:00;;;;;;;;;;;21.60;67.60;;;;;;5063943;28;1902;-69
2022/06/25 09:43:36;;;;;;;;;;;21.60;67.60;;;;;;5067661;28;1177;-69
2022/06/25 09:46:02;;;;;;;;;;;21.60;67.60;;;;;;5065370;28;1367;-69
2022/06/25 09:48:28;;;;;;;;;;;21.60;67.60;;;;;;5087912;28;1213;-69
2022/06/25 09:51:13;;;;;;;;;;;21.60;67.60;;;;;;5084222;28;1389;-69
2022/06/25 09:53:51;;;;;;;;;;;21.60;67.60;;;;;;5060965;28;1564;-69
2022/06/25 09:56:19;;;;;;;;;;;21.60;67.60;;;;;;5074364;28;1403;-70
2022/06/25 09:58:45;;;;;;;;;;;21.60;67.60;;;;;;5074316;28;1674;-69
2022/06/25 10:01:10;;;;;;;;;;;21.60;67.60;;;;;;5088621;28;1905;-69
2022/06/25 10:03:36;;;;;;;;;;;21.60;67.60;;;;;;5085185;28;1673;-69
2022/06/25 10:06:01;;;;;;;;;;;21.60;67.60;;;;;;5059904;28;1108;-69
2022/06/25 10:08:27;;;;;;;;;;;21.60;67.60;;;;;;5063589;28;1025;-69
2022/06/25 10:10:52;;;;;;;;;;;21.60;67.60;;;;;;5071246;28;1681;-69
2022/06/25 10:13:18;;;;;;;;;;;21.60;67.60;;;;;;5084940;28;1240;-69
2022/06/25 10:15:44;;;;;;;;;;;21.60;67.70;;;;;;5074003;28;1655;-69
2022/06/25 10:18:10;;;;;;;;;;;21.60;67.60;;;;;;5064562;28;1345;-69
2022/06/25 10:20:35;;;;;;;;;;;21.60;67.60;;;;;;5057443;28;1899;-69
2022/06/25 10:23:01;;;;;;;;;;;21.60;67.60;;;;;;5070983;28;1447;-69
2022/06/25 10:25:27;;;;;;;;;;;21.60;67.60;;;;;;5078604;28;1425;-69
2022/06/25 10:28:02;;;;;;;;;;;21.60;67.70;;;;;;5072559;28;826;-69
2022/06/25 10:30:36;;;;;;;;;;;21.60;67.60;;;;;;5072675;28;1376;-69
2022/06/25 10:33:01;;;;;;;;;;;21.60;67.60;;;;;;5072458;28;1173;-69
2022/06/25 10:35:30;;;;;;;;;;;21.60;67.60;;;;;;5077256;28;1496;-69
2022/06/25 10:38:00;;;;;;;;;;;21.60;67.70;;;;;;5081945;28;1020;-69
2022/06/25 10:40:25;;;;;;;;;;;21.60;67.60;;;;;;5055978;28;1898;-69
2022/06/25 10:42:59;;;;;;;;;;;21.60;67.60;;;;;;5075047;28;1391;-69
2022/06/25 10:45:25;;;;;;;;;;;21.60;67.60;;;;;;5056119;28;1329;-69
2022/06/25 10:47:51;;;;;;;;;;;21.60;67.60;;;;;;5053569;28;827;-69
2022/06/25 10:50:19;;;;;;;;;;;21.60;67.60;;;;;;5085747;28;1421;-69
2022/06/25 10:53:11;;;;;;;;;;;21.60;67.60;;;;;;5085657;28;1345;-69
2022/06/25 10:55:39;;;;;;;;;;;21.60;67.60;;;;;;5079907;28;1112;-69
2022/06/25 10:58:18;;;;;;;;;;;21.60;68.40;;;;;;5068629;28;1190;-69
2022/06/25 11:00:47;;;;;;;;;;;21.60;67.60;;;;;;5064045;28;1902;-69
2022/06/25 11:03:13;;;;;;;;;;;21.60;67.60;;;;;;5071911;28;1576;-69
2022/06/25 11:05:42;;;;;;;;;;;21.60;67.70;;;;;;5060686;28;1021;-69
2022/06/25 11:08:08;;;;;;;;;;;21.60;67.60;;;;;;5092920;28;1551;-69
2022/06/25 11:10:37;;;;;;;;;;;21.60;67.60;;;;;;5080434;28;1373;-69
2022/06/25 11:13:03;;;;;;;;;;;21.60;67.60;;;;;;5066704;28;1387;-69
2022/06/25 11:15:41;;;;;;;;;;;21.60;68.40;;;;;;5092152;28;838;-69
2022/06/25 11:18:12;;;;;;;;;;;21.60;67.60;;;;;;5070074;28;1019;-68
2022/06/25 11:20:38;;;;;;;;;;;21.60;67.60;;;;;;5076065;28;1890;-69
2022/06/25 11:23:03;;;;;;;;;;;21.60;67.60;;;;;;5081045;28;1405;-69
2022/06/25 11:28:48;;;;;;;;;;;21.60;67.70;;;;;;5078047;28;1315;-69
2022/06/25 11:31:20;;;;;;;;;;;21.60;67.70;;;;;;5053063;28;1397;-69
2022/06/25 11:33:46;;;;;;;;;;;21.60;67.70;;;;;;5082526;28;1457;-69
2022/06/25 11:36:12;;;;;;;;;;;21.60;67.60;;;;;;5073004;28;1366;-69
2022/06/25 11:38:37;;;;;;;;;;;21.60;67.70;;;;;;5062885;28;1308;-68
2022/06/25 11:41:03;;;;;;;;;;;21.60;67.60;;;;;;5081637;28;1898;-68
2022/06/25 11:43:28;;;;;;;;;;;21.60;67.60;;;;;;5056184;28;1421;-69
2022/06/25 11:45:57;;;;;;;;;;;21.60;67.60;;;;;;5071583;28;1443;-69
2022/06/25 11:48:26;;;;;;;;;;;21.60;67.70;;;;;;5075877;28;1082;-69
2022/06/25 11:50:55;;;;;;;;;;;21.60;67.70;;;;;;5062263;28;1045;-69
2022/06/25 11:53:20;;;;;;;;;;;21.60;67.60;;;;;;5066836;23;2195;-73
2022/06/25 11:56:02;;;;;;;;;;;21.60;67.70;;;;;;5088097;28;1078;-72
2022/06/25 11:58:28;;;;;;;;;;;21.60;67.70;;;;;;5082199;28;1477;-72
2022/06/25 12:00:57;;;;;;;;;;;21.60;67.70;;;;;;5094581;28;1921;-72
2022/06/25 12:03:23;;;;;;;;;;;21.60;67.70;;;;;;5103517;28;1326;-72
2022/06/25 12:05:49;;;;;;;;;;;21.60;67.70;;;;;;5092390;28;1158;-72
2022/06/25 12:08:14;;;;;;;;;;;21.60;67.70;;;;;;5093789;28;1145;-72
2022/06/25 12:10:42;;;;;;;;;;;21.60;67.70;;;;;;5078638;28;1145;-72
2022/06/25 12:13:07;;;;;;;;;;;21.60;67.70;;;;;;5065326;28;1376;-73
2022/06/25 12:15:33;;;;;;;;;;;21.60;67.70;;;;;;5077826;28;1311;-72
2022/06/25 12:18:02;;;;;;;;;;;21.60;67.70;;;;;;5078290;28;1144;-72
2022/06/25 12:20:28;;;;;;;;;;;21.60;67.70;;;;;;5077988;28;1902;-72
2022/06/25 12:22:53;;;;;;;;;;;21.60;67.70;;;;;;5096276;28;1386;-72
2022/06/25 12:25:29;;;;;;;;;;;21.60;67.70;;;;;;5077453;28;1333;-72
2022/06/25 12:27:54;;;;;;;;;;;21.60;67.70;;;;;;5078074;28;1291;-72
2022/06/25 12:30:21;;;;;;;;;;;21.60;67.70;;;;;;5077767;28;1282;-72
2022/06/25 12:32:47;;;;;;;;;;;21.60;67.70;;;;;;5077795;28;1353;-72
2022/06/25 12:35:38;;;;;;;;;;;21.60;67.70;;;;;;5077474;28;1103;-72
2022/06/25 12:38:05;;;;;;;;;;;21.60;67.70;;;;;;5090848;28;1301;-72
2022/06/25 12:40:37;;;;;;;;;;;21.60;67.70;;;;;;5095429;28;1901;-72
2022/06/25 12:43:05;;;;;;;;;;;21.60;67.70;;;;;;5077801;28;1354;-72
2022/06/25 12:45:31;;;;;;;;;;;21.60;67.70;;;;;;5054258;28;2215;-72
2022/06/25 12:47:56;;;;;;;;;;;21.60;67.70;;;;;;5089897;28;1077;-72
2022/06/25 12:50:25;;;;;;;;;;;21.60;67.70;;;;;;5076089;28;1213;-73
2022/06/25 12:52:51;;;;;;;;;;;21.60;67.70;;;;;;5089227;28;1356;-72
2022/06/25 12:55:20;;;;;;;;;;;21.60;67.70;;;;;;5095056;28;1355;-72
2022/06/25 12:57:45;;;;;;;;;;;21.60;67.70;;;;;;5095479;28;1345;-72
2022/06/25 13:00:17;;;;;;;;;;;21.60;67.70;;;;;;5077241;28;1960;-72
2022/06/25 13:02:42;;;;;;;;;;;21.60;67.70;;;;;;5103626;28;1464;-72
2022/06/25 13:05:08;;;;;;;;;;;21.60;67.70;;;;;;5095152;28;1277;-72
2022/06/25 13:07:33;;;;;;;;;;;21.60;67.70;;;;;;5077217;28;1262;-72
2022/06/25 13:09:59;;;;;;;;;;;21.60;67.70;;;;;;5095113;28;1121;-71
2022/06/25 13:12:24;;;;;;;;;;;21.60;67.70;;;;;;5095331;28;1325;-72
2022/06/25 13:14:50;;;;;;;;;;;21.60;67.70;;;;;;5094936;28;1075;-73
2022/06/25 13:17:15;;;;;;;;;;;21.60;67.70;;;;;;5095197;28;1307;-72
2022/06/25 13:19:41;;;;;;;;;;;21.60;67.70;;;;;;5094724;28;1091;-71
2022/06/25 13:22:06;;;;;;;;;;;21.60;67.70;;;;;;5094816;28;1949;-72
2022/06/25 13:24:32;;;;;;;;;;;21.60;67.70;;;;;;5076553;28;1055;-72
2022/06/25 13:26:57;;;;;;;;;;;21.60;67.70;;;;;;5094949;28;1188;-72
2022/06/25 13:29:24;;;;;;;;;;;21.60;67.70;;;;;;5094946;28;1430;-72
2022/06/25 13:31:50;;;;;;;;;;;21.60;67.70;;;;;;5077055;28;1075;-73
2022/06/25 13:34:15;;;;;;;;;;;21.60;67.70;;;;;;5094496;28;1208;-71
2022/06/25 13:36:40;;;;;;;;;;;21.60;67.70;;;;;;5094711;28;1356;-70
2022/06/25 13:39:06;;;;;;;;;;;21.60;67.70;;;;;;5076475;28;1415;-69
2022/06/25 13:41:31;;;;;;;;;;;21.60;67.70;;;;;;5094756;28;1898;-70
2022/06/25 13:43:57;;;;;;;;;;;21.60;67.70;;;;;;5094213;28;1249;-70
2022/06/25 13:46:23;;;;;;;;;;;21.60;67.70;;;;;;5076661;28;1436;-70
2022/06/25 13:48:49;;;;;;;;;;;21.60;67.70;;;;;;5094497;28;1419;-70
2022/06/25 13:51:14;;;;;;;;;;;21.60;67.70;;;;;;5076478;28;1307;-70
2022/06/25 13:53:40;;;;;;;;;;;21.60;67.70;;;;;;5075774;28;1276;-72
2022/06/25 13:56:06;;;;;;;;;;;21.60;67.70;;;;;;5088358;28;1610;-72
2022/06/25 13:58:32;;;;;;;;;;;21.60;67.70;;;;;;5076161;28;1099;-73
2022/06/25 14:00:58;;;;;;;;;;;21.60;67.70;;;;;;5094050;28;1910;-74
2022/06/25 14:03:24;;;;;;;;;;;21.60;67.70;;;;;;5084228;28;1561;-74
2022/06/25 14:05:50;;;;;;;;;;;21.60;67.70;;;;;;5059058;28;1282;-74
2022/06/25 14:08:15;;;;;;;;;;;21.60;67.70;;;;;;5094182;28;1047;-74
2022/06/25 14:10:41;;;;;;;;;;;21.60;67.70;;;;;;5076045;28;1294;-74
2022/06/25 14:13:06;;;;;;;;;;;21.60;67.70;;;;;;5075679;28;1385;-74
2022/06/25 14:15:32;;;;;;;;;;;21.60;67.80;;;;;;5093649;28;1260;-74
2022/06/25 14:17:58;;;;;;;;;;;21.60;67.70;;;;;;5075820;28;1348;-73
2022/06/25 14:20:23;;;;;;;;;;;21.60;67.80;;;;;;5080234;28;1973;-73
2022/06/25 14:22:48;;;;;;;;;;;21.60;67.70;;;;;;5093791;28;1329;-73
2022/06/25 14:25:24;;;;;;;;;;;21.60;67.80;;;;;;5089458;28;1063;-71
2022/06/25 14:27:59;;;;;;;;;;;21.60;67.80;;;;;;5081303;28;1214;-72
2022/06/25 14:30:24;;;;;;;;;;;21.60;67.80;;;;;;5075063;28;1370;-72
2022/06/25 14:32:50;;;;;;;;;;;21.60;67.80;;;;;;5075701;28;1265;-72
2022/06/25 14:35:15;;;;;;;;;;;21.60;67.80;;;;;;5075118;28;1195;-71
2022/06/25 14:43:09;;;;;;;;;;;21.60;67.80;;;;;;5078136;28;1307;-73